createdAt,value
2017-11-16T00:01:25.571Z,-0.30
2017-11-16T00:03:53.199Z,-0.30
2017-11-16T00:06:21.636Z,-0.20
2017-11-16T00:08:49.271Z,-0.30
2017-11-16T00:11:16.898Z,-0.30
2017-11-16T00:13:44.603Z,-0.30
2017-11-16T00:16:13.713Z,-0.30
2017-11-16T00:18:41.362Z,-0.30
2017-11-16T00:21:09.024Z,-0.30
2017-11-16T00:26:04.277Z,-0.40
2017-11-16T00:28:31.994Z,-0.50
2017-11-16T00:31:00.349Z,-0.60
2017-11-16T00:33:28.825Z,-0.60
2017-11-16T00:35:56.544Z,-0.60
2017-11-16T00:38:24.998Z,-0.60
2017-11-16T00:40:52.616Z,-0.60
2017-11-16T00:43:21.265Z,-0.60
2017-11-16T00:45:49.631Z,-0.70
2017-11-16T00:48:17.269Z,-0.70
2017-11-16T00:50:44.949Z,-0.60
2017-11-16T00:55:53.268Z,-0.70
2017-11-16T00:58:21.803Z,-0.50
2017-11-16T01:00:50.379Z,-0.50
2017-11-16T01:03:18.073Z,-0.40
2017-11-16T01:05:45.698Z,-0.40
2017-11-16T01:08:13.320Z,-0.40
2017-11-16T01:10:41.032Z,-0.40
2017-11-16T01:13:08.661Z,-0.50
2017-11-16T01:15:36.302Z,-0.50
2017-11-16T01:18:03.979Z,-0.50
2017-11-16T01:20:32.455Z,-0.60
2017-11-16T01:23:00.097Z,-0.50
2017-11-16T01:25:27.785Z,-0.50
2017-11-16T01:27:55.419Z,-0.60
2017-11-16T01:30:23.046Z,-0.50
2017-11-16T01:32:50.751Z,-0.50
2017-11-16T01:35:18.383Z,-0.50
2017-11-16T01:37:46.036Z,-0.50
2017-11-16T01:40:13.700Z,-0.50
2017-11-16T01:42:41.333Z,-0.50
2017-11-16T01:45:12.266Z,-0.50
2017-11-16T01:47:39.976Z,-0.50
2017-11-16T01:50:08.429Z,-0.60
2017-11-16T01:52:36.068Z,-0.60
2017-11-16T01:55:03.748Z,-0.60
2017-11-16T02:00:10.555Z,-0.50
2017-11-16T02:02:41.126Z,-0.40
2017-11-16T02:05:08.763Z,-0.50
2017-11-16T02:07:36.450Z,-0.50
2017-11-16T02:10:04.074Z,-0.50
2017-11-16T02:15:00.232Z,-0.60
2017-11-16T02:17:27.997Z,-0.60
2017-11-16T02:19:55.633Z,-0.70
2017-11-16T02:22:23.351Z,-0.60
2017-11-16T02:24:51.101Z,-0.60
2017-11-16T02:27:19.688Z,-0.60
2017-11-16T02:29:47.372Z,-0.60
2017-11-16T02:32:15.001Z,-0.70
2017-11-16T02:34:42.629Z,-0.70
2017-11-16T02:39:38.922Z,-0.70
2017-11-16T02:42:08.074Z,-0.70
2017-11-16T02:44:36.252Z,-0.70
2017-11-16T02:47:04.847Z,-0.70
2017-11-16T02:49:33.009Z,-0.70
2017-11-16T02:52:00.723Z,-0.70
2017-11-16T02:54:28.363Z,-0.80
2017-11-16T02:56:56.504Z,-0.80
2017-11-16T02:59:24.224Z,-0.80
2017-11-16T03:01:51.842Z,-0.80
2017-11-16T03:04:19.489Z,-0.90
2017-11-16T03:09:14.789Z,-0.80
2017-11-16T03:11:42.421Z,-0.90
2017-11-16T03:14:10.129Z,-0.80
2017-11-16T03:16:37.757Z,-0.90
2017-11-16T03:24:16.377Z,-0.90
2017-11-16T03:26:44.830Z,-0.90
2017-11-16T03:29:12.455Z,-0.80
2017-11-16T03:34:07.768Z,-0.90
2017-11-16T03:36:35.402Z,-1.00
2017-11-16T03:39:03.030Z,-1.00
2017-11-16T03:41:31.109Z,-1.00
2017-11-16T03:43:58.744Z,-1.00
2017-11-16T03:46:27.216Z,-1.00
2017-11-16T03:48:55.319Z,-1.00
2017-11-16T03:51:22.948Z,-1.00
2017-11-16T03:53:50.593Z,-1.10
2017-11-16T03:56:18.677Z,-1.20
2017-11-16T03:58:46.928Z,-1.20
2017-11-16T04:01:15.021Z,-1.20
2017-11-16T04:03:43.718Z,-1.20
2017-11-16T04:06:12.274Z,-1.10
2017-11-16T04:11:07.709Z,-1.10
2017-11-16T04:13:35.893Z,-1.10
2017-11-16T04:16:04.506Z,-1.10
2017-11-16T04:18:32.205Z,-1.10
2017-11-16T04:20:59.838Z,-1.10
2017-11-16T04:23:27.975Z,-1.20
2017-11-16T04:25:55.660Z,-1.20
2017-11-16T04:28:23.293Z,-1.20
2017-11-16T04:30:52.483Z,-1.30
2017-11-16T04:33:21.574Z,-1.30
2017-11-16T04:35:49.823Z,-1.30
2017-11-16T04:38:18.741Z,-1.30
2017-11-16T04:43:27.380Z,-1.20
2017-11-16T04:45:55.106Z,-1.10
2017-11-16T04:48:23.692Z,-1.10
2017-11-16T04:50:51.892Z,-1.10
2017-11-16T04:53:20.668Z,-1.10
2017-11-16T04:58:18.339Z,-1.20
2017-11-16T05:00:46.016Z,-1.10
2017-11-16T05:03:13.658Z,-1.10
2017-11-16T05:05:41.308Z,-1.10
2017-11-16T05:08:09.005Z,-1.10
2017-11-16T05:10:37.169Z,-1.20
2017-11-16T05:13:05.651Z,-1.20
2017-11-16T05:15:34.236Z,-1.20
2017-11-16T05:18:01.896Z,-1.20
2017-11-16T05:20:29.614Z,-1.20
2017-11-16T05:22:57.323Z,-1.20
2017-11-16T05:25:24.944Z,-1.30
2017-11-16T05:27:52.934Z,-1.30
2017-11-16T05:30:20.644Z,-1.30
2017-11-16T05:32:48.279Z,-1.30
2017-11-16T05:35:15.922Z,-1.30
2017-11-16T05:37:43.620Z,-1.30
2017-11-16T05:40:11.258Z,-1.30
2017-11-16T05:42:38.885Z,-1.30
2017-11-16T05:45:06.972Z,-1.20
2017-11-16T05:47:34.615Z,-1.20
2017-11-16T05:50:03.233Z,-1.20
2017-11-16T05:52:30.928Z,-1.30
2017-11-16T05:54:58.561Z,-1.20
2017-11-16T05:57:26.184Z,-1.30
2017-11-16T06:02:21.537Z,-1.30
2017-11-16T06:04:49.161Z,-1.30
2017-11-16T06:12:25.241Z,-1.20
2017-11-16T06:14:53.869Z,-1.20
2017-11-16T06:17:22.371Z,-1.10
2017-11-16T06:19:50.065Z,-0.70
2017-11-16T06:22:18.533Z,-0.60
2017-11-16T06:24:46.175Z,-0.60
2017-11-16T06:27:13.884Z,-0.60
2017-11-16T06:29:41.517Z,-0.60
2017-11-16T06:32:09.157Z,-0.70
2017-11-16T06:34:36.845Z,-0.80
2017-11-16T06:37:04.469Z,-1.10
2017-11-16T06:39:32.110Z,-1.20
2017-11-16T06:41:59.830Z,-1.20
2017-11-16T06:44:27.461Z,-1.20
2017-11-16T06:46:55.099Z,-1.20
2017-11-16T06:49:23.181Z,-1.20
2017-11-16T06:51:50.811Z,-1.10
2017-11-16T06:54:18.446Z,-1.20
2017-11-16T06:56:46.158Z,-1.20
2017-11-16T06:59:13.777Z,-1.20
2017-11-16T07:01:41.385Z,-1.20
2017-11-16T07:04:09.522Z,-1.20
2017-11-16T07:06:37.142Z,-1.20
2017-11-16T07:09:04.767Z,-1.20
2017-11-16T07:11:32.438Z,-1.10
2017-11-16T07:14:00.053Z,-1.20
2017-11-16T07:18:55.359Z,-1.10
2017-11-16T07:21:24.030Z,-1.10
2017-11-16T07:23:51.648Z,-1.10
2017-11-16T07:26:19.341Z,-1.10
2017-11-16T07:28:46.960Z,-1.20
2017-11-16T07:31:14.574Z,-1.40
2017-11-16T07:33:42.236Z,-1.30
2017-11-16T07:38:49.033Z,-1.00
2017-11-16T07:41:16.652Z,-0.80
2017-11-16T07:43:44.284Z,-0.50
2017-11-16T07:46:11.960Z,-0.20
2017-11-16T07:48:39.582Z,0.20
2017-11-16T07:51:07.200Z,0.10
2017-11-16T07:53:34.885Z,0.30
2017-11-16T07:56:02.503Z,0.20
2017-11-16T07:58:30.128Z,-0.30
2017-11-16T08:00:57.809Z,-0.10
2017-11-16T08:03:25.427Z,0.30
2017-11-16T08:05:53.057Z,0.80
2017-11-16T08:08:20.725Z,1.40
2017-11-16T08:10:49.881Z,1.50
2017-11-16T08:13:17.497Z,1.80
2017-11-16T08:15:45.165Z,2.40
2017-11-16T08:18:16.785Z,2.20
2017-11-16T08:20:44.394Z,2.40
2017-11-16T08:25:39.966Z,2.80
2017-11-16T08:28:07.583Z,3.20
2017-11-16T08:30:35.254Z,3.60
2017-11-16T08:33:02.863Z,3.90
2017-11-16T08:35:30.956Z,4.10
2017-11-16T08:37:58.572Z,3.80
2017-11-16T08:40:26.184Z,4.00
2017-11-16T08:45:21.454Z,3.10
2017-11-16T08:47:49.071Z,3.20
2017-11-16T08:50:16.678Z,3.40
2017-11-16T08:52:44.371Z,3.90
2017-11-16T08:55:12.822Z,4.30
2017-11-16T08:57:40.439Z,4.80
2017-11-16T09:00:11.569Z,4.50
2017-11-16T09:02:39.177Z,5.00
2017-11-16T09:07:47.960Z,4.80
2017-11-16T09:10:15.562Z,4.70
2017-11-16T09:12:43.168Z,4.50
2017-11-16T09:15:10.843Z,4.80
2017-11-16T09:20:06.083Z,4.20
2017-11-16T09:22:33.781Z,4.20
2017-11-16T09:25:01.412Z,4.90
2017-11-16T09:27:29.028Z,5.50
2017-11-16T09:29:56.685Z,6.00
2017-11-16T09:32:24.295Z,6.30
2017-11-16T09:34:51.917Z,5.90
2017-11-16T09:37:19.577Z,5.50
2017-11-16T09:39:47.187Z,5.10
2017-11-16T09:42:14.803Z,5.20
2017-11-16T09:44:42.467Z,5.20
2017-11-16T09:49:37.698Z,5.30
2017-11-16T09:52:05.385Z,5.80
2017-11-16T09:54:33.002Z,5.80
2017-11-16T09:57:00.610Z,5.70
2017-11-16T09:59:28.282Z,5.50
2017-11-16T10:01:55.893Z,5.40
2017-11-16T10:04:23.529Z,5.60
2017-11-16T10:06:51.197Z,6.10
2017-11-16T10:09:18.817Z,5.40
2017-11-16T10:11:48.878Z,6.00
2017-11-16T10:14:14.522Z,5.50
2017-11-16T10:16:42.131Z,6.30
2017-11-16T10:19:09.743Z,5.80
2017-11-16T10:21:37.422Z,6.20
2017-11-16T10:24:05.028Z,6.70
2017-11-16T10:26:32.638Z,7.50
2017-11-16T10:29:00.325Z,7.30
2017-11-16T10:31:27.943Z,6.80
2017-11-16T10:36:36.731Z,7.70
2017-11-16T10:39:04.930Z,6.80
2017-11-16T10:44:00.238Z,6.10
2017-11-16T10:46:28.669Z,5.70
2017-11-16T10:48:56.287Z,6.70
2017-11-16T10:53:51.563Z,6.60
2017-11-16T10:56:19.163Z,7.10
2017-11-16T10:58:46.865Z,6.80
2017-11-16T11:01:14.484Z,7.20
2017-11-16T11:06:09.752Z,7.60
2017-11-16T11:08:37.359Z,7.30
2017-11-16T11:11:04.969Z,7.60
2017-11-16T11:13:32.640Z,8.50
2017-11-16T11:16:00.262Z,8.60
2017-11-16T11:18:27.882Z,8.10
2017-11-16T11:20:55.586Z,8.80
2017-11-16T11:23:23.203Z,8.90
2017-11-16T11:25:50.826Z,8.60
2017-11-16T11:28:18.512Z,9.00
2017-11-16T11:30:46.128Z,9.40
2017-11-16T11:33:13.767Z,9.00
2017-11-16T11:35:41.474Z,7.70
2017-11-16T11:38:09.090Z,7.50
2017-11-16T11:40:36.705Z,7.90
2017-11-16T11:43:04.378Z,8.30
2017-11-16T11:45:32.043Z,9.00
2017-11-16T11:47:59.624Z,8.50
2017-11-16T11:50:27.315Z,8.50
2017-11-16T11:52:54.934Z,8.00
2017-11-16T11:55:22.550Z,7.60
2017-11-16T11:57:50.231Z,7.90
2017-11-16T12:00:18.656Z,7.80
2017-11-16T12:02:46.273Z,8.70
2017-11-16T12:07:53.037Z,8.80
2017-11-16T12:10:20.706Z,8.90
2017-11-16T12:12:48.322Z,8.20
2017-11-16T12:15:15.936Z,9.30
2017-11-16T12:17:43.635Z,9.10
2017-11-16T12:20:12.072Z,9.70
2017-11-16T12:22:39.702Z,9.60
2017-11-16T12:25:07.371Z,9.80
2017-11-16T12:27:34.990Z,9.40
2017-11-16T12:30:02.613Z,9.60
2017-11-16T12:32:30.301Z,9.00
2017-11-16T12:37:25.543Z,9.70
2017-11-16T12:39:53.960Z,9.80
2017-11-16T12:42:21.584Z,9.70
2017-11-16T12:44:49.190Z,8.70
2017-11-16T12:47:16.874Z,8.60
2017-11-16T12:49:44.486Z,8.40
2017-11-16T12:52:12.097Z,9.10
2017-11-16T12:57:07.396Z,9.70
2017-11-16T12:59:35.009Z,9.90
2017-11-16T13:02:02.700Z,9.30
2017-11-16T13:04:30.305Z,9.40
2017-11-16T13:09:25.613Z,8.40
2017-11-16T13:11:53.225Z,8.30
2017-11-16T13:14:20.848Z,8.80
2017-11-16T13:16:48.536Z,9.50
2017-11-16T13:19:16.151Z,8.30
2017-11-16T13:21:43.787Z,8.20
2017-11-16T13:24:11.467Z,9.40
2017-11-16T13:26:39.356Z,8.90
2017-11-16T13:29:06.965Z,8.30
2017-11-16T13:31:34.656Z,8.00
2017-11-16T13:34:02.274Z,8.60
2017-11-16T13:41:36.652Z,8.40
2017-11-16T13:44:04.262Z,8.20
2017-11-16T13:46:32.747Z,8.70
2017-11-16T13:49:00.349Z,9.10
2017-11-16T13:51:27.970Z,8.40
2017-11-16T13:53:55.670Z,8.20
2017-11-16T13:56:23.296Z,8.00
2017-11-16T13:58:50.910Z,8.20
2017-11-16T14:03:46.199Z,8.00
2017-11-16T14:06:13.812Z,8.10
2017-11-16T14:08:41.475Z,9.00
2017-11-16T14:11:09.088Z,8.80
2017-11-16T14:13:36.693Z,8.50
2017-11-16T14:16:04.391Z,8.20
2017-11-16T14:18:31.997Z,8.00
2017-11-16T14:20:59.606Z,8.70
2017-11-16T14:23:27.264Z,8.30
2017-11-16T14:25:54.878Z,8.80
2017-11-16T14:28:22.499Z,8.90
2017-11-16T14:30:50.177Z,8.80
2017-11-16T14:33:17.788Z,7.90
2017-11-16T14:35:45.398Z,7.90
2017-11-16T14:38:13.065Z,7.60
2017-11-16T14:40:40.666Z,7.60
2017-11-16T14:43:08.288Z,7.60
2017-11-16T14:48:15.029Z,7.50
2017-11-16T14:50:42.720Z,7.30
2017-11-16T14:53:11.274Z,7.20
2017-11-16T14:55:38.895Z,7.00
2017-11-16T14:58:06.561Z,6.70
2017-11-16T15:00:34.185Z,6.60
2017-11-16T15:03:01.795Z,6.40
2017-11-16T15:05:29.462Z,6.20
2017-11-16T15:07:57.084Z,6.00
2017-11-16T15:10:25.651Z,5.90
2017-11-16T15:12:53.338Z,5.70
2017-11-16T15:15:21.815Z,5.60
2017-11-16T15:17:49.423Z,5.50
2017-11-16T15:20:17.104Z,5.50
2017-11-16T15:22:44.717Z,5.60
2017-11-16T15:25:12.339Z,5.40
2017-11-16T15:27:40.036Z,5.40
2017-11-16T15:30:07.656Z,5.40
2017-11-16T15:35:16.149Z,5.20
2017-11-16T15:37:43.762Z,5.10
2017-11-16T15:40:11.370Z,4.90
2017-11-16T15:42:39.074Z,4.80
2017-11-16T15:47:34.311Z,4.60
2017-11-16T15:50:01.988Z,4.60
2017-11-16T15:52:30.411Z,4.50
2017-11-16T15:57:37.639Z,4.30
2017-11-16T16:02:33.019Z,4.30
2017-11-16T16:05:00.598Z,4.30
2017-11-16T16:07:28.211Z,4.30
2017-11-16T16:09:55.829Z,4.30
2017-11-16T16:14:52.321Z,4.20
2017-11-16T16:19:47.587Z,4.10
2017-11-16T16:22:15.193Z,3.90
2017-11-16T16:24:42.804Z,3.80
2017-11-16T16:27:11.446Z,3.90
2017-11-16T16:29:39.066Z,3.80
2017-11-16T16:32:07.080Z,4.00
2017-11-16T16:34:34.755Z,3.80
2017-11-16T16:37:02.378Z,3.70
2017-11-16T16:39:30.011Z,3.60
2017-11-16T16:41:57.759Z,3.70
2017-11-16T16:46:52.917Z,3.60
2017-11-16T16:49:20.604Z,3.60
2017-11-16T16:51:48.222Z,3.50
2017-11-16T16:54:15.832Z,3.50
2017-11-16T16:56:43.529Z,3.50
2017-11-16T16:59:11.133Z,3.40
2017-11-16T17:01:38.752Z,3.40
2017-11-16T17:04:06.429Z,3.40
2017-11-16T17:06:34.058Z,3.40
2017-11-16T17:09:01.676Z,3.30
2017-11-16T17:11:29.345Z,3.20
2017-11-16T17:13:56.967Z,3.20
2017-11-16T17:16:24.582Z,3.30
2017-11-16T17:18:52.281Z,3.30
2017-11-16T17:26:25.009Z,2.90
2017-11-16T17:28:53.978Z,3.00
2017-11-16T17:31:21.901Z,3.10
2017-11-16T17:33:50.245Z,2.90
2017-11-16T17:36:18.175Z,2.90
2017-11-16T17:38:46.083Z,2.70
2017-11-16T17:41:14.405Z,2.80
2017-11-16T17:43:47.652Z,2.80
2017-11-16T17:46:17.320Z,2.60
2017-11-16T17:48:45.557Z,2.60
2017-11-16T17:51:13.548Z,2.50
2017-11-16T17:53:41.704Z,2.50
2017-11-16T17:56:10.357Z,2.50
2017-11-16T18:01:34.398Z,2.40
2017-11-16T18:04:02.623Z,2.40
2017-11-16T18:06:31.986Z,2.20
2017-11-16T18:11:35.833Z,2.20
2017-11-16T18:14:03.537Z,2.20
2017-11-16T18:16:31.176Z,2.20
2017-11-16T18:18:59.698Z,2.20
2017-11-16T18:21:27.365Z,2.20
2017-11-16T18:23:54.994Z,2.10
2017-11-16T18:26:22.609Z,2.10
2017-11-16T18:28:50.297Z,2.00
2017-11-16T18:31:17.929Z,1.90
2017-11-16T18:36:13.265Z,1.80
2017-11-16T18:38:40.868Z,1.90
2017-11-16T18:41:08.515Z,1.80
2017-11-16T18:43:37.148Z,1.80
2017-11-16T18:46:04.820Z,1.80
2017-11-16T18:48:32.443Z,1.90
2017-11-16T18:51:00.138Z,1.80
2017-11-16T18:53:28.677Z,1.90
2017-11-16T18:55:56.327Z,2.00
2017-11-16T18:58:24.926Z,1.90
2017-11-16T19:00:53.295Z,1.80
2017-11-16T19:03:21.653Z,1.70
2017-11-16T19:05:49.322Z,1.70
2017-11-16T19:08:16.973Z,1.70
2017-11-16T19:10:45.071Z,1.60
2017-11-16T19:13:12.799Z,1.60
2017-11-16T19:15:40.461Z,1.50
2017-11-16T19:18:08.419Z,1.50
2017-11-16T19:20:36.108Z,1.50
2017-11-16T19:23:03.758Z,1.60
2017-11-16T19:25:31.377Z,1.60
2017-11-16T19:27:59.108Z,1.50
2017-11-16T19:30:27.576Z,1.60
2017-11-16T19:35:33.312Z,1.70
2017-11-16T19:38:06.202Z,1.80
2017-11-16T19:40:34.154Z,1.80
2017-11-16T19:43:02.932Z,1.60
2017-11-16T19:45:31.352Z,1.50
2017-11-16T19:48:00.738Z,1.50
2017-11-16T19:50:30.854Z,1.50
2017-11-16T19:52:59.299Z,1.50
2017-11-16T19:55:27.920Z,1.50
2017-11-16T19:57:59.142Z,1.60
2017-11-16T20:00:27.789Z,1.60
2017-11-16T20:02:56.632Z,1.60
2017-11-16T20:08:11.287Z,1.80
2017-11-16T20:13:18.029Z,1.80
2017-11-16T20:15:45.323Z,1.60
2017-11-16T20:18:13.822Z,1.40
2017-11-16T20:20:47.926Z,1.30
2017-11-16T20:23:17.340Z,1.20
2017-11-16T20:37:16.326Z,0.90
2017-11-16T20:47:54.546Z,1.00
2017-11-16T20:50:28.527Z,1.00
2017-11-16T20:58:04.764Z,1.00
2017-11-16T21:00:37.961Z,1.00
2017-11-16T21:03:06.669Z,1.10
2017-11-16T21:05:35.206Z,1.10
2017-11-16T21:13:13.662Z,0.80
2017-11-16T21:15:42.964Z,0.80
2017-11-16T21:18:11.378Z,0.80
2017-11-16T21:20:40.567Z,0.70
2017-11-16T21:23:09.775Z,0.70
2017-11-16T21:25:38.742Z,0.70
2017-11-16T21:28:07.024Z,0.70
2017-11-16T21:30:35.509Z,0.80
2017-11-16T21:33:03.158Z,0.80
2017-11-16T21:35:30.766Z,0.80
2017-11-16T21:37:58.545Z,0.80
2017-11-16T21:40:26.194Z,0.80
2017-11-16T21:42:54.721Z,0.80
2017-11-16T21:45:27.178Z,0.90
2017-11-16T21:47:54.752Z,0.90
2017-11-16T21:50:22.400Z,0.90
2017-11-16T21:52:50.124Z,0.90
2017-11-16T21:55:17.763Z,0.90
2017-11-16T21:57:45.400Z,0.80
2017-11-16T22:00:13.107Z,0.80
2017-11-16T22:02:40.740Z,0.80
2017-11-16T22:05:11.754Z,0.80
2017-11-16T22:07:39.497Z,0.80
2017-11-16T22:10:07.109Z,0.90
2017-11-16T22:12:34.737Z,0.90
2017-11-16T22:15:02.434Z,0.90
2017-11-16T22:17:31.142Z,1.00
2017-11-16T22:19:58.806Z,1.00
2017-11-16T22:22:26.440Z,1.00
2017-11-16T22:24:55.028Z,1.00
2017-11-16T22:27:22.673Z,1.00
2017-11-16T22:29:50.458Z,1.00
2017-11-16T22:34:57.753Z,0.90
2017-11-16T22:37:25.386Z,1.10
2017-11-16T22:39:53.045Z,1.10
2017-11-16T22:42:21.831Z,1.00
2017-11-16T22:44:49.529Z,0.90
2017-11-16T22:47:17.117Z,0.90
2017-11-16T22:49:44.932Z,1.00
2017-11-16T22:52:12.596Z,1.00
2017-11-16T22:54:41.799Z,1.00
2017-11-16T22:57:09.671Z,1.00
2017-11-16T22:59:37.275Z,0.90
2017-11-16T23:02:05.956Z,1.00
2017-11-16T23:04:33.592Z,1.00
2017-11-16T23:07:01.209Z,1.10
2017-11-16T23:12:00.883Z,1.00
2017-11-16T23:14:28.517Z,1.10
2017-11-16T23:16:56.164Z,1.00
2017-11-16T23:19:24.722Z,1.10
2017-11-16T23:21:52.388Z,1.20
2017-11-16T23:24:20.041Z,1.30
2017-11-16T23:26:47.744Z,1.20
2017-11-16T23:29:15.383Z,1.20
2017-11-16T23:34:10.717Z,1.30
2017-11-16T23:36:44.424Z,1.40
2017-11-16T23:39:14.892Z,1.30
2017-11-16T23:44:19.658Z,1.30
2017-11-16T23:46:47.288Z,1.50
2017-11-16T23:51:58.612Z,1.60
2017-11-16T23:54:26.139Z,1.50
2017-11-16T23:56:56.356Z,1.60
2017-11-16T23:59:24.450Z,1.60
